Terminal Aerodrome Forecast
Issued by NWS Tiyan, Guam

Home | Current Version | Previous Version | Text Only | Print | Product List | Glossary On
Versions: 1 2 3 4 5 6 7 8 9 10 11 12 13 14 15 16 17 18 19 20 21 22 23 24
000
FTPQ31 PGUM 270542
TAFGUM
TAF
PGUM 270542Z 2706/2812 07015KT P6SM FEW022 SCT035
     FM270800 08007KT P6SM VCSH SCT025
     FM272300 07014KT P6SM VCSH SCT022 SCT035=

USA.gov is the U.S. government's official web portal to all federal, state and local government web resources and services.